Time;durP1;ratioP1;P1;durP2;ratioP2;P2;SDS_P1;SDS_P2;PMS_P1;PMS_P2;Temp;Humidity;BMP_temperature;BMP_pressure;BME280_temperature;BME280_humidity;BME280_pressure;Samples;Min_cycle;Max_cycle;Signal;HPM_P1;HPM_P2
2022/10/10 00:00:49;;;;;;;23.33;12.43;;;25.00;99.90;;;;;;5055582;28;20017;-67
2022/10/10 00:03:16;;;;;;;21.08;11.55;;;25.10;99.90;;;;;;5055564;28;20025;-67
2022/10/10 00:05:43;;;;;;;24.50;15.23;;;25.10;99.90;;;;;;5055362;28;20368;-67
2022/10/10 00:08:09;;;;;;;22.98;13.35;;;25.00;99.90;;;;;;5055433;28;20096;-64
2022/10/10 00:10:37;;;;;;;18.67;12.00;;;25.00;99.90;;;;;;5055384;28;20075;-64
2022/10/10 00:13:04;;;;;;;21.42;10.90;;;25.00;99.90;;;;;;5055125;28;20025;-65
2022/10/10 00:15:31;;;;;;;23.02;10.50;;;25.00;99.90;;;;;;5055401;28;20047;-64
2022/10/10 00:17:58;;;;;;;14.25;9.10;;;25.10;99.90;;;;;;5055374;28;20025;-65
2022/10/10 00:20:25;;;;;;;15.00;8.38;;;25.20;99.90;;;;;;5055233;28;20017;-67
2022/10/10 00:22:51;;;;;;;16.77;8.70;;;25.20;99.90;;;;;;5055154;28;20027;-66
2022/10/10 00:25:18;;;;;;;19.33;8.32;;;25.40;99.90;;;;;;5055128;28;20079;-66
2022/10/10 00:27:44;;;;;;;17.02;8.65;;;25.50;99.90;;;;;;5054997;28;20017;-66
2022/10/10 00:30:11;;;;;;;33.85;22.30;;;25.60;99.90;;;;;;5055140;28;20392;-66
2022/10/10 00:32:38;;;;;;;16.73;9.48;;;25.70;99.90;;;;;;5055194;28;20082;-66
2022/10/10 00:35:05;;;;;;;14.93;8.90;;;25.80;99.90;;;;;;5054923;28;20074;-66
2022/10/10 00:37:32;;;;;;;13.88;8.82;;;25.90;99.90;;;;;;5054760;28;20021;-66
2022/10/10 00:39:58;;;;;;;20.42;11.05;;;25.90;99.90;;;;;;5054833;28;20017;-66
2022/10/10 00:42:25;;;;;;;12.20;7.53;;;26.00;99.90;;;;;;5054884;28;20830;-66
2022/10/10 00:45:24;;;;;;;12.82;7.78;;;26.00;99.90;;;;;;5054585;28;20028;-65
2022/10/10 00:47:54;;;;;;;12.68;7.85;;;26.00;99.90;;;;;;5054422;28;20024;-66
2022/10/10 00:50:22;;;;;;;9.63;5.47;;;26.10;99.90;;;;;;5054703;28;20025;-65
2022/10/10 00:52:49;;;;;;;12.45;5.97;;;26.10;99.90;;;;;;5054612;28;20017;-66
2022/10/10 00:55:17;;;;;;;9.82;6.18;;;26.10;99.90;;;;;;5054424;28;20436;-66
2022/10/10 00:57:43;;;;;;;12.77;6.35;;;26.10;99.90;;;;;;5054450;28;20464;-66
2022/10/10 01:00:10;;;;;;;8.95;5.32;;;26.10;99.90;;;;;;5054401;28;20021;-66
2022/10/10 01:02:37;;;;;;;8.85;5.15;;;26.20;99.90;;;;;;5054313;28;20490;-66
2022/10/10 01:05:04;;;;;;;11.10;5.25;;;26.10;99.90;;;;;;5054518;28;20032;-65
2022/10/10 01:07:32;;;;;;;11.82;5.18;;;26.20;99.90;;;;;;5053728;28;20024;-65
2022/10/10 01:10:04;;;;;;;12.88;5.90;;;26.30;99.90;;;;;;5054208;28;20025;-65
2022/10/10 01:12:55;;;;;;;11.35;5.50;;;26.40;99.90;;;;;;5054203;28;20036;-66
2022/10/10 01:15:49;;;;;;;11.20;5.72;;;26.50;99.90;;;;;;5054028;28;20029;-66
2022/10/10 01:18:20;;;;;;;11.90;5.75;;;26.70;99.90;;;;;;5047380;28;20471;-67
2022/10/10 01:21:03;;;;;;;9.50;5.68;;;26.70;99.90;;;;;;5054084;28;20387;-66
2022/10/10 01:23:38;;;;;;;15.13;6.15;;;26.70;99.90;;;;;;5053995;28;20032;-66
2022/10/10 01:26:44;;;;;;;7.72;4.55;;;26.70;99.90;;;;;;5053972;28;20073;-66
2022/10/10 01:29:29;;;;;;;79.75;53.75;;;26.70;99.90;;;;;;4953573;29;20526;-67
2022/10/10 01:32:04;;;;;;;16.92;7.40;;;26.70;99.90;;;;;;4953635;29;20040;-66
2022/10/10 01:34:33;;;;;;;9.70;5.57;;;26.90;99.90;;;;;;4953838;28;20032;-66
2022/10/10 01:37:06;;;;;;;12.90;6.07;;;27.00;99.90;;;;;;4953727;29;20027;-67
2022/10/10 01:39:52;;;;;;;11.70;5.35;;;26.90;99.90;;;;;;4953473;28;20023;-67
2022/10/10 01:42:25;;;;;;;6.65;4.78;;;27.00;99.90;;;;;;4953674;29;20031;-66
2022/10/10 01:44:52;;;;;;;10.60;5.28;;;27.10;99.90;;;;;;4953481;29;20404;-67
2022/10/10 01:47:21;;;;;;;9.45;5.00;;;27.00;99.90;;;;;;4953885;29;20403;-67
2022/10/10 01:49:53;;;;;;;11.27;5.13;;;27.10;99.90;;;;;;4953451;29;20613;-67
2022/10/10 01:52:22;;;;;;;6.10;4.05;;;27.10;99.90;;;;;;4953445;29;20494;-66
2022/10/10 01:55:09;;;;;;;66.55;47.15;;;27.10;99.90;;;;;;4953660;29;20028;-67
2022/10/10 01:58:04;;;;;;;23.27;5.18;;;27.20;99.90;;;;;;4953123;29;20530;-67
2022/10/10 02:00:44;;;;;;;26.00;17.67;;;27.50;99.90;;;;;;4951491;29;20513;-67
2022/10/10 02:03:18;;;;;;;8.50;5.57;;;27.60;99.90;;;;;;4953385;29;20114;-67
2022/10/10 02:05:49;;;;;;;36.78;24.25;;;27.40;99.90;;;;;;4982615;28;20033;-66
2022/10/10 02:08:35;;;;;;;13.98;7.60;;;27.50;99.90;;;;;;5053503;28;20021;-66
2022/10/10 02:11:07;;;;;;;25.10;17.88;;;27.50;99.90;;;;;;5053101;28;20096;-66
2022/10/10 02:13:59;;;;;;;12.85;8.93;;;27.50;99.90;;;;;;5053240;28;20036;-66
2022/10/10 02:16:35;;;;;;;10.95;4.93;;;27.50;99.90;;;;;;5053060;28;20021;-66
2022/10/10 02:19:05;;;;;;;6.80;3.83;;;27.50;99.90;;;;;;5053316;28;20029;-66
2022/10/10 02:21:33;;;;;;;10.48;4.00;;;27.40;99.90;;;;;;5072326;28;20028;-66
2022/10/10 02:24:02;;;;;;;7.05;3.88;;;27.50;99.90;;;;;;5093500;28;20111;-67
2022/10/10 02:26:31;;;;;;;7.50;4.38;;;27.50;99.90;;;;;;5093452;28;20381;-66
2022/10/10 02:29:01;;;;;;;6.70;4.50;;;27.70;99.90;;;;;;5093141;28;20081;-66
2022/10/10 02:31:52;;;;;;;8.13;4.38;;;27.80;99.90;;;;;;5063647;28;20045;-66
2022/10/10 02:34:26;;;;;;;6.28;4.18;;;27.90;99.90;;;;;;5055590;28;20107;-66
2022/10/10 02:37:00;;;;;;;8.98;4.18;;;28.00;99.90;;;;;;5053037;28;20086;-66
2022/10/10 02:39:32;;;;;;;11.00;4.22;;;27.90;99.90;;;;;;5052694;28;20048;-66
2022/10/10 02:41:58;;;;;;;4.38;3.90;;;27.90;99.90;;;;;;5066361;28;20039;-66
2022/10/10 02:44:26;;;;;;;7.57;4.10;;;28.00;99.90;;;;;;5072992;28;20513;-67
2022/10/10 02:46:53;;;;;;;5.70;3.72;;;27.90;99.90;;;;;;5072867;28;20440;-67
2022/10/10 02:49:31;;;;;;;4.78;3.90;;;27.90;99.90;;;;;;5072760;28;20407;-66
2022/10/10 02:51:58;;;;;;;6.53;4.30;;;27.80;99.90;;;;;;5054700;28;20429;-67
2022/10/10 02:54:25;;;;;;;7.70;4.30;;;27.80;99.90;;;;;;5070418;28;20016;-67
2022/10/10 02:56:51;;;;;;;7.43;4.20;;;27.80;99.90;;;;;;5052642;28;20114;-67
2022/10/10 02:59:18;;;;;;;8.13;4.57;;;27.90;99.90;;;;;;5052707;28;20025;-68
2022/10/10 03:01:45;;;;;;;6.80;4.40;;;28.00;99.90;;;;;;5062485;28;20033;-67
2022/10/10 03:04:12;;;;;;;7.80;4.82;;;28.00;99.90;;;;;;5052709;28;20039;-68
2022/10/10 03:06:39;;;;;;;5.90;4.38;;;28.00;99.90;;;;;;5052809;28;20360;-69
2022/10/10 03:09:05;;;;;;;8.57;5.15;;;27.90;99.90;;;;;;5052620;28;20018;-68
2022/10/10 03:11:32;;;;;;;11.80;6.40;;;28.00;99.90;;;;;;5052788;28;20112;-68
2022/10/10 03:13:59;;;;;;;12.40;4.70;;;28.00;99.90;;;;;;5053136;28;20021;-68
2022/10/10 03:16:25;;;;;;;6.25;4.82;;;28.00;99.90;;;;;;5052816;28;20021;-67
2022/10/10 03:18:52;;;;;;;9.35;5.28;;;28.00;99.90;;;;;;5052692;28;20020;-67
2022/10/10 03:21:18;;;;;;;11.23;5.13;;;28.00;99.90;;;;;;5052597;28;20467;-67
2022/10/10 03:23:45;;;;;;;6.47;5.00;;;28.10;99.90;;;;;;5052686;28;20032;-67
2022/10/10 03:26:11;;;;;;;17.58;5.55;;;28.00;99.90;;;;;;5052594;28;20475;-67
2022/10/10 03:28:38;;;;;;;9.73;5.13;;;28.20;99.90;;;;;;5052389;28;20157;-67
2022/10/10 03:31:05;;;;;;;7.68;5.05;;;28.30;99.90;;;;;;5054251;28;20388;-67
2022/10/10 03:33:34;;;;;;;12.98;5.68;;;28.20;99.90;;;;;;5055991;28;20107;-67
2022/10/10 03:36:00;;;;;;;9.82;5.68;;;28.30;99.90;;;;;;5056035;28;20108;-67
2022/10/10 03:38:27;;;;;;;9.07;5.15;;;28.30;99.90;;;;;;5055797;28;20021;-66
2022/10/10 03:40:54;;;;;;;6.90;5.25;;;28.30;99.90;;;;;;5055900;28;20452;-67
2022/10/10 03:43:20;;;;;;;11.77;6.60;;;28.30;99.90;;;;;;5055829;28;20086;-67
2022/10/10 03:45:47;;;;;;;8.55;6.20;;;28.30;99.90;;;;;;5055720;28;20021;-67
2022/10/10 03:48:14;;;;;;;14.32;10.73;;;28.40;99.90;;;;;;5055676;28;20057;-67
2022/10/10 03:50:40;;;;;;;12.90;7.03;;;28.40;99.90;;;;;;5055653;28;20033;-66
2022/10/10 03:53:07;;;;;;;16.10;8.35;;;28.60;99.90;;;;;;5055158;28;20025;-66
2022/10/10 03:55:34;;;;;;;10.70;6.60;;;28.60;99.90;;;;;;5060049;28;20130;-67
2022/10/10 03:58:01;;;;;;;17.10;6.75;;;28.70;99.90;;;;;;5075857;28;20097;-67
2022/10/10 04:00:27;;;;;;;13.60;7.20;;;28.60;99.90;;;;;;5072881;28;20025;-66
2022/10/10 04:02:54;;;;;;;10.68;6.32;;;28.60;99.90;;;;;;5055664;28;20049;-66
2022/10/10 04:05:20;;;;;;;11.57;6.07;;;28.50;99.90;;;;;;5055547;28;20021;-67
2022/10/10 04:07:47;;;;;;;13.40;7.05;;;28.60;99.90;;;;;;5055781;28;20480;-67
2022/10/10 04:10:13;;;;;;;13.32;7.30;;;28.70;99.90;;;;;;5075434;28;20067;-66
2022/10/10 04:12:40;;;;;;;11.25;6.95;;;28.70;99.90;;;;;;5075346;28;20021;-66
2022/10/10 04:15:07;;;;;;;9.88;6.50;;;28.80;99.90;;;;;;5075257;28;20375;-67
2022/10/10 04:17:33;;;;;;;11.95;7.13;;;28.80;99.90;;;;;;5075414;28;20020;-67
2022/10/10 04:20:00;;;;;;;14.77;7.07;;;28.80;99.90;;;;;;5075138;28;20115;-67
2022/10/10 04:22:26;;;;;;;10.27;6.85;;;28.80;99.90;;;;;;5074948;28;20394;-67
2022/10/10 04:24:53;;;;;;;7.57;5.60;;;28.90;99.90;;;;;;5075181;28;20099;-67
2022/10/10 04:27:20;;;;;;;149.52;96.68;;;29.10;99.90;;;;;;5064855;28;20078;-66
2022/10/10 04:29:46;;;;;;;36.03;22.00;;;29.10;99.90;;;;;;5054867;28;20029;-66
2022/10/10 04:32:13;;;;;;;63.03;43.58;;;29.20;99.90;;;;;;5062986;28;20041;-67
2022/10/10 04:34:39;;;;;;;39.03;23.77;;;29.00;99.90;;;;;;5067327;28;20029;-67
2022/10/10 04:37:06;;;;;;;139.95;108.60;;;29.00;99.90;;;;;;5081124;28;20012;-67
2022/10/10 04:39:32;;;;;;;181.18;114.80;;;28.90;99.90;;;;;;5083185;28;20414;-66
2022/10/10 04:41:59;;;;;;;29.35;17.00;;;28.90;99.90;;;;;;5082709;28;20012;-66
2022/10/10 04:44:25;;;;;;;19.33;11.48;;;29.00;99.90;;;;;;5084945;28;20020;-65
2022/10/10 04:46:52;;;;;;;16.27;10.18;;;28.90;99.90;;;;;;5083017;28;20016;-66
2022/10/10 04:49:19;;;;;;;17.88;9.48;;;28.90;99.90;;;;;;5083804;28;20023;-66
2022/10/10 04:51:45;;;;;;;21.25;10.45;;;28.80;99.90;;;;;;5084868;28;20077;-65
2022/10/10 04:54:12;;;;;;;20.50;11.75;;;28.90;99.90;;;;;;5082961;28;20027;-66
2022/10/10 04:56:41;;;;;;;25.35;12.55;;;28.90;99.90;;;;;;5083465;28;20027;-65
2022/10/10 04:59:09;;;;;;;21.73;12.07;;;29.10;99.90;;;;;;5085505;28;20016;-66
2022/10/10 05:01:35;;;;;;;27.58;12.93;;;29.10;99.90;;;;;;5084028;28;20096;-66
2022/10/10 05:04:02;;;;;;;22.67;13.90;;;29.10;99.90;;;;;;5085994;28;20494;-67
2022/10/10 05:06:29;;;;;;;24.02;12.40;;;29.00;99.90;;;;;;5084257;28;20066;-65
2022/10/10 05:08:55;;;;;;;24.90;14.35;;;29.00;99.90;;;;;;5076996;28;20078;-65
2022/10/10 05:11:22;;;;;;;23.45;13.02;;;29.00;99.90;;;;;;5074454;28;20028;-66
2022/10/10 05:13:49;;;;;;;24.55;12.93;;;29.10;99.90;;;;;;5074369;28;20471;-66
2022/10/10 05:16:16;;;;;;;26.00;13.07;;;29.00;99.90;;;;;;5074291;28;20063;-66
2022/10/10 05:18:43;;;;;;;24.85;12.57;;;29.20;99.90;;;;;;5074283;28;20020;-68
2022/10/10 05:21:10;;;;;;;20.33;11.77;;;29.20;99.90;;;;;;5074969;28;20455;-67
2022/10/10 05:23:40;;;;;;;22.48;12.13;;;29.20;99.90;;;;;;5076627;28;20035;-66
2022/10/10 05:26:07;;;;;;;22.25;13.40;;;29.40;99.90;;;;;;5077753;28;20082;-67
2022/10/10 05:28:36;;;;;;;24.20;11.63;;;29.50;99.90;;;;;;5082570;28;20479;-66
2022/10/10 05:31:03;;;;;;;26.27;11.13;;;29.50;99.90;;;;;;5078956;28;20579;-67
2022/10/10 05:33:31;;;;;;;20.50;10.77;;;29.40;99.90;;;;;;5083455;28;20035;-66
2022/10/10 05:36:03;;;;;;;17.38;10.55;;;29.50;99.90;;;;;;5084780;28;20475;-65
2022/10/10 05:38:29;;;;;;;;;;;29.40;99.90;;;;;;5087677;28;20386;-64
2022/10/10 05:40:56;;;;;;;26.08;12.27;;;29.40;99.90;;;;;;5089003;28;19916;-66
2022/10/10 05:43:22;;;;;;;17.67;11.93;;;29.60;99.90;;;;;;5080960;28;20058;-65
2022/10/10 05:45:49;;;;;;;23.02;12.25;;;29.70;99.90;;;;;;5081686;28;20480;-67
2022/10/10 05:48:15;;;;;;;33.63;16.77;;;29.50;99.90;;;;;;5076428;28;20107;-67
2022/10/10 05:50:49;;;;;;;69.20;41.67;;;29.60;99.90;;;;;;5084689;28;20103;-66
2022/10/10 05:53:17;;;;;;;52.47;33.38;;;29.80;99.90;;;;;;5077884;28;20033;-67
2022/10/10 05:55:44;;;;;;;31.17;19.20;;;29.90;99.90;;;;;;5070990;28;21823;-66
2022/10/10 05:58:12;;;;;;;21.00;13.07;;;29.80;99.90;;;;;;5077346;28;20069;-68
2022/10/10 06:00:40;;;;;;;25.50;11.50;;;29.80;99.90;;;;;;5080755;28;20142;-66
2022/10/10 06:03:07;;;;;;;18.27;11.90;;;29.90;99.90;;;;;;5078623;28;20506;-67
2022/10/10 06:05:35;;;;;;;18.70;11.57;;;30.10;99.90;;;;;;5080906;28;20031;-67
2022/10/10 06:08:02;;;;;;;32.88;14.90;;;30.10;99.90;;;;;;5075616;28;20055;-66
2022/10/10 06:10:29;;;;;;;21.27;12.57;;;30.20;99.90;;;;;;5078618;28;20025;-66
2022/10/10 06:12:55;;;;;;;20.45;12.52;;;30.00;99.90;;;;;;5082041;28;20099;-67
2022/10/10 06:15:22;;;;;;;24.60;16.38;;;30.00;99.90;;;;;;5081641;28;20024;-66
2022/10/10 06:17:48;;;;;;;26.98;17.08;;;30.10;99.90;;;;;;5083526;28;20470;-66
2022/10/10 06:20:15;;;;;;;27.08;16.58;;;30.30;99.90;;;;;;5082657;28;20020;-66
2022/10/10 06:22:41;;;;;;;26.42;15.30;;;30.40;99.90;;;;;;5081169;28;20028;-66
2022/10/10 06:25:08;;;;;;;21.08;13.73;;;30.40;99.90;;;;;;5078723;28;20033;-66
2022/10/10 06:27:35;;;;;;;26.17;13.30;;;30.60;99.90;;;;;;5081259;28;20428;-67
2022/10/10 06:30:02;;;;;;;22.17;13.18;;;30.70;99.90;;;;;;5076418;28;20036;-66
2022/10/10 06:32:30;;;;;;;22.38;13.32;;;30.70;99.90;;;;;;5081548;28;20044;-66
2022/10/10 06:34:56;;;;;;;15.93;12.20;;;30.60;99.90;;;;;;5082761;28;20059;-67
2022/10/10 06:37:23;;;;;;;17.90;11.88;;;30.70;99.90;;;;;;5083304;28;20039;-66
2022/10/10 06:39:50;;;;;;;24.05;13.93;;;30.50;99.90;;;;;;5078836;28;20021;-66
2022/10/10 06:42:17;;;;;;;19.33;12.68;;;30.50;99.90;;;;;;5081555;28;20482;-66
2022/10/10 06:44:43;;;;;;;19.65;13.75;;;30.60;99.90;;;;;;5081587;28;20041;-66
2022/10/10 06:47:11;;;;;;;15.20;11.27;;;30.60;99.90;;;;;;5083450;28;20016;-66
2022/10/10 06:49:38;;;;;;;19.15;12.10;;;30.80;99.90;;;;;;5080979;28;20016;-65
2022/10/10 06:52:04;;;;;;;22.60;13.15;;;30.70;99.90;;;;;;5083109;28;20024;-65
2022/10/10 06:54:31;;;;;;;15.77;11.65;;;30.90;99.90;;;;;;5081695;28;20013;-65
2022/10/10 06:56:57;;;;;;;16.10;11.20;;;30.80;99.90;;;;;;5082151;28;20013;-66
2022/10/10 06:59:24;;;;;;;16.02;10.93;;;30.70;99.90;;;;;;5072367;28;20043;-66
2022/10/10 07:01:50;;;;;;;14.70;10.80;;;30.70;99.90;;;;;;5072460;28;20020;-66
2022/10/10 07:04:17;;;;;;;13.52;10.07;;;30.70;99.90;;;;;;5072380;28;20017;-64
2022/10/10 07:06:43;;;;;;;17.15;9.55;;;30.80;99.90;;;;;;5075768;28;20019;-66
2022/10/10 07:09:10;;;;;;;17.95;10.60;;;30.90;99.90;;;;;;5085967;28;20032;-66
2022/10/10 07:11:36;;;;;;;15.95;10.43;;;30.90;99.90;;;;;;5085925;28;20523;-65
2022/10/10 07:14:03;;;;;;;18.85;10.77;;;30.90;99.90;;;;;;5089610;28;20048;-70
2022/10/10 07:16:30;;;;;;;19.05;11.93;;;30.90;99.90;;;;;;5081969;28;20048;-70
2022/10/10 07:18:56;;;;;;;17.63;12.20;;;30.90;99.90;;;;;;5087888;28;20378;-65
2022/10/10 07:21:23;;;;;;;20.58;10.30;;;31.00;99.90;;;;;;5085305;28;20016;-69
2022/10/10 07:23:49;;;;;;;15.18;9.77;;;31.10;99.90;;;;;;5087041;28;20023;-70
2022/10/10 07:26:19;;;;;;;12.43;8.13;;;31.00;99.90;;;;;;5085399;28;20024;-70
2022/10/10 07:28:46;;;;;;;10.98;7.15;;;30.90;99.90;;;;;;5084831;28;20047;-70
2022/10/10 07:31:13;;;;;;;17.08;8.20;;;31.10;99.90;;;;;;5086502;28;20043;-66
2022/10/10 07:33:43;;;;;;;17.38;6.97;;;31.00;99.90;;;;;;5085565;28;20158;-70
2022/10/10 07:36:10;;;;;;;12.07;6.07;;;31.20;99.90;;;;;;5084458;28;20032;-68
2022/10/10 07:38:37;;;;;;;58.75;45.08;;;31.30;99.90;;;;;;5086450;28;20522;-70
2022/10/10 07:41:07;;;;;;;176.20;140.82;;;31.30;99.90;;;;;;5085702;28;20463;-70
2022/10/10 07:43:33;;;;;;;40.55;30.80;;;31.30;99.90;;;;;;5090244;28;20031;-69
2022/10/10 07:46:00;;;;;;;12.82;7.25;;;31.30;99.90;;;;;;5096009;28;20036;-68
2022/10/10 07:48:27;;;;;;;24.33;15.77;;;31.40;99.90;;;;;;5074059;28;20024;-70
2022/10/10 07:50:53;;;;;;;18.08;14.77;;;31.40;99.90;;;;;;5057272;28;20526;-71
2022/10/10 07:53:20;;;;;;;95.35;64.10;;;31.40;99.90;;;;;;5055691;28;20021;-71
2022/10/10 07:55:46;;;;;;;48.90;33.22;;;31.40;99.90;;;;;;5055604;28;20020;-71
2022/10/10 07:58:13;;;;;;;17.98;7.70;;;31.30;99.90;;;;;;5055509;28;20021;-70
2022/10/10 08:00:40;;;;;;;15.82;8.68;;;31.30;99.90;;;;;;5055252;28;20017;-71
2022/10/10 08:03:08;;;;;;;11.82;6.97;;;31.30;99.90;;;;;;5055531;28;20052;-69
2022/10/10 08:05:40;;;;;;;20.17;14.52;;;31.20;99.90;;;;;;5055204;28;20036;-70
2022/10/10 08:08:08;;;;;;;13.13;9.68;;;31.20;99.90;;;;;;5055539;28;20029;-67
2022/10/10 08:10:35;;;;;;;13.77;5.78;;;31.20;99.90;;;;;;5055326;28;20127;-67
2022/10/10 08:13:02;;;;;;;15.30;5.22;;;31.30;99.90;;;;;;5055123;28;20034;-67
2022/10/10 08:15:28;;;;;;;10.10;4.40;;;31.30;99.90;;;;;;5056163;28;20261;-67
2022/10/10 08:17:55;;;;;;;9.65;4.40;;;31.40;99.90;;;;;;5065346;28;20028;-67
2022/10/10 08:20:21;;;;;;;13.55;5.15;;;31.40;99.90;;;;;;5055135;28;20104;-67
2022/10/10 08:22:48;;;;;;;12.35;7.60;;;31.30;99.90;;;;;;5083374;28;20054;-67
2022/10/10 08:25:14;;;;;;;9.77;5.43;;;31.30;99.90;;;;;;5080218;28;20020;-70
2022/10/10 08:27:41;;;;;;;7.82;4.63;;;31.20;99.90;;;;;;5084323;28;20028;-68
2022/10/10 08:30:08;;;;;;;10.65;7.35;;;31.00;99.90;;;;;;5085559;28;20121;-70
2022/10/10 08:32:35;;;;;;;10.93;5.25;;;31.00;99.90;;;;;;5073820;28;20159;-69
2022/10/10 08:35:01;;;;;;;8.57;5.68;;;31.00;99.90;;;;;;5065134;28;20028;-74
2022/10/10 08:37:28;;;;;;;17.38;10.18;;;31.00;99.90;;;;;;5054810;28;20082;-74
2022/10/10 08:39:55;;;;;;;9.02;6.70;;;31.00;99.90;;;;;;5054872;28;20028;-71
2022/10/10 08:42:37;;;;;;;13.43;6.80;;;31.00;99.90;;;;;;5054921;28;20021;-72
2022/10/10 08:45:10;;;;;;;13.02;6.07;;;31.00;99.90;;;;;;5054858;28;20529;-71
2022/10/10 08:48:01;;;;;;;11.43;4.95;;;31.00;99.90;;;;;;5054821;28;20387;-71
2022/10/10 08:50:42;;;;;;;6.97;4.85;;;31.00;99.90;;;;;;4993178;28;20465;-71
2022/10/10 08:53:15;;;;;;;12.95;6.45;;;31.00;99.90;;;;;;4993056;28;20038;-69
2022/10/10 08:55:43;;;;;;;18.42;6.50;;;30.90;99.90;;;;;;4992881;28;20034;-70
2022/10/10 08:58:28;;;;;;;14.77;6.20;;;30.90;99.90;;;;;;4993181;28;20453;-73
2022/10/10 09:01:04;;;;;;;9.88;5.35;;;30.90;99.90;;;;;;5001260;28;20049;-70
2022/10/10 09:03:59;;;;;;;10.63;6.22;;;30.90;99.90;;;;;;5012214;28;20026;-71
2022/10/10 09:06:51;;;;;;;10.80;6.95;;;30.90;99.90;;;;;;5012191;28;20038;-69
2022/10/10 09:09:31;;;;;;;17.88;8.77;;;30.80;99.90;;;;;;5012590;28;20038;-68
2022/10/10 09:12:14;;;;;;;18.30;10.00;;;30.80;99.90;;;;;;5012335;28;20034;-67
2022/10/10 09:14:50;;;;;;;12.93;8.25;;;30.70;99.90;;;;;;5011969;28;20022;-68
2022/10/10 09:17:24;;;;;;;12.82;7.20;;;30.70;99.90;;;;;;5012324;28;20026;-67
2022/10/10 09:20:21;;;;;;;13.05;6.03;;;30.70;99.90;;;;;;5012446;28;20018;-67
2022/10/10 09:22:53;;;;;;;11.73;5.30;;;30.70;99.90;;;;;;4972565;28;20047;-67
2022/10/10 09:25:32;;;;;;;11.32;5.63;;;30.50;99.90;;;;;;4973163;28;20031;-68
2022/10/10 09:28:14;;;;;;;13.77;5.97;;;30.50;99.90;;;;;;4972572;28;20140;-68
2022/10/10 09:30:47;;;;;;;15.48;6.30;;;30.50;99.90;;;;;;4973164;28;20030;-67
2022/10/10 09:33:36;;;;;;;10.95;5.85;;;30.60;99.90;;;;;;4972219;28;20062;-67
2022/10/10 09:36:06;;;;;;;14.13;6.18;;;30.60;99.90;;;;;;4971472;28;20081;-66
2022/10/10 09:38:38;;;;;;;14.60;6.30;;;30.60;99.90;;;;;;4973018;28;20030;-68
2022/10/10 09:41:04;;;;;;;;;;;30.50;99.90;;;;;;4972969;28;20502;-67
2022/10/10 09:43:32;;;;;;;18.80;7.18;;;30.50;99.90;;;;;;4975365;28;19913;-67
2022/10/10 09:45:59;;;;;;;11.38;6.03;;;30.50;99.90;;;;;;4982243;28;20046;-67
2022/10/10 09:48:32;;;;;;;14.68;5.97;;;30.50;99.90;;;;;;4980753;28;20043;-65
2022/10/10 09:51:02;;;;;;;13.27;5.22;;;30.40;99.90;;;;;;4979590;28;20162;-65
2022/10/10 09:53:29;;;;;;;15.80;7.78;;;30.50;99.90;;;;;;5021178;28;20124;-66
2022/10/10 09:55:55;;;;;;;73.00;51.90;;;30.40;99.90;;;;;;5063334;28;20021;-65
2022/10/10 09:58:38;;;;;;;41.72;19.85;;;30.40;99.90;;;;;;5062976;28;20372;-66
2022/10/10 10:01:27;;;;;;;58.30;28.35;;;30.40;99.90;;;;;;5059227;28;20056;-66
2022/10/10 10:04:09;;;;;;;115.28;18.00;;;30.30;99.90;;;;;;5055948;28;20127;-66
2022/10/10 10:06:36;;;;;;;;;;;30.30;99.90;;;;;;5063786;28;20083;-68
2022/10/10 10:09:05;;;;;;;52.13;17.15;;;30.20;99.90;;;;;;5063042;28;20129;-66
2022/10/10 10:11:36;;;;;;;20.45;10.80;;;30.10;99.90;;;;;;5059084;28;20443;-66
2022/10/10 10:14:03;;;;;;;19.38;10.90;;;30.10;99.90;;;;;;5061497;28;20025;-69
2022/10/10 10:16:35;;;;;;;17.05;9.77;;;30.00;99.90;;;;;;5072740;28;20028;-66
2022/10/10 10:19:03;;;;;;;23.48;10.10;;;30.00;99.90;;;;;;5073244;28;20016;-66
2022/10/10 10:21:30;;;;;;;25.88;12.13;;;29.90;99.90;;;;;;5073070;28;20486;-66
2022/10/10 10:24:00;;;;;;;24.27;10.30;;;29.90;99.90;;;;;;5073136;28;20078;-64
2022/10/10 10:26:39;;;;;;;22.92;10.52;;;30.00;99.90;;;;;;5044436;28;20041;-65
2022/10/10 10:29:27;;;;;;;19.92;11.20;;;30.00;99.90;;;;;;5039614;28;20502;-64
2022/10/10 10:32:18;;;;;;;25.30;18.05;;;29.90;99.90;;;;;;5032870;28;20429;-66
2022/10/10 10:34:58;;;;;;;22.42;12.68;;;29.90;99.90;;;;;;5057667;28;20563;-66
2022/10/10 10:37:34;;;;;;;20.52;12.23;;;29.90;99.90;;;;;;5057521;28;20387;-65
2022/10/10 10:40:29;;;;;;;129.32;91.80;;;29.90;99.90;;;;;;5054847;28;20063;-65
2022/10/10 10:43:25;;;;;;;185.68;134.52;;;29.80;99.90;;;;;;5085291;28;20386;-64
2022/10/10 10:46:02;;;;;;;216.63;121.28;;;29.80;99.90;;;;;;5084689;28;20020;-65
2022/10/10 10:48:29;;;;;;;305.92;143.85;;;29.80;99.90;;;;;;5083809;28;20501;-65
2022/10/10 10:50:59;;;;;;;110.72;72.03;;;29.80;99.90;;;;;;5085889;28;20024;-65
2022/10/10 10:53:38;;;;;;;60.55;39.80;;;29.80;99.90;;;;;;5081686;28;20943;-65
2022/10/10 10:56:39;;;;;;;73.50;45.83;;;29.70;99.90;;;;;;5082319;28;20024;-64
2022/10/10 10:59:35;;;;;;;103.10;66.93;;;29.60;99.90;;;;;;5083097;28;20012;-65
2022/10/10 11:02:23;;;;;;;127.90;79.35;;;29.60;99.90;;;;;;4994293;28;20034;-65
2022/10/10 11:05:09;;;;;;;45.55;26.50;;;29.60;99.90;;;;;;4993288;28;20432;-65
2022/10/10 11:07:43;;;;;;;39.13;20.77;;;29.50;99.90;;;;;;4994492;28;20137;-64
2022/10/10 11:10:13;;;;;;;36.67;17.60;;;29.50;99.90;;;;;;4993923;28;20026;-65
2022/10/10 11:13:05;;;;;;;34.05;17.75;;;29.40;99.90;;;;;;4993795;28;20054;-64
2022/10/10 11:15:42;;;;;;;34.05;17.92;;;29.40;99.90;;;;;;4994042;28;20522;-64
2022/10/10 11:18:34;;;;;;;26.67;15.48;;;29.40;99.90;;;;;;4995176;28;20029;-64
2022/10/10 11:21:11;;;;;;;35.35;17.35;;;29.40;99.90;;;;;;4991654;28;20440;-63
2022/10/10 11:24:07;;;;;;;32.25;19.45;;;29.40;99.90;;;;;;4992114;28;20026;-66
2022/10/10 11:26:41;;;;;;;42.20;23.83;;;29.40;99.90;;;;;;4935148;29;20118;-66
2022/10/10 11:29:19;;;;;;;35.33;21.58;;;29.40;99.90;;;;;;4935589;29;20568;-66
2022/10/10 11:31:56;;;;;;;30.75;15.88;;;29.40;99.90;;;;;;4935619;29;20087;-67
2022/10/10 11:34:30;;;;;;;26.08;13.48;;;29.40;99.90;;;;;;4934298;29;20213;-66
2022/10/10 11:37:04;;;;;;;22.23;13.05;;;29.30;99.90;;;;;;4935707;29;20106;-64
2022/10/10 11:39:40;;;;;;;164.70;125.20;;;29.30;99.90;;;;;;4981111;28;20030;-64
2022/10/10 11:42:19;;;;;;;92.82;64.65;;;29.30;99.90;;;;;;5005490;28;20053;-63
2022/10/10 11:44:55;;;;;;;126.72;92.60;;;29.30;99.90;;;;;;5007902;28;20034;-64
2022/10/10 11:47:40;;;;;;;63.70;43.20;;;29.30;99.90;;;;;;5006257;28;20033;-64
2022/10/10 11:50:29;;;;;;;38.90;22.80;;;29.30;99.90;;;;;;5007870;28;20028;-66
2022/10/10 11:53:20;;;;;;;43.38;23.58;;;29.20;99.90;;;;;;5003254;28;20026;-65
2022/10/10 11:56:08;;;;;;;121.47;86.72;;;29.10;99.90;;;;;;5006326;28;20027;-63
2022/10/10 11:59:01;;;;;;;48.72;29.50;;;29.10;99.90;;;;;;5004075;28;20018;-65
2022/10/10 12:01:30;;;;;;;47.47;28.20;;;29.10;99.90;;;;;;5003842;28;20085;-65
2022/10/10 12:03:56;;;;;;;36.75;21.15;;;29.00;99.90;;;;;;5003108;28;20029;-65
2022/10/10 12:06:46;;;;;;;44.90;24.45;;;29.00;99.90;;;;;;5004950;28;20130;-64
2022/10/10 12:09:18;;;;;;;58.08;30.60;;;28.90;99.90;;;;;;5020959;28;20089;-63
2022/10/10 12:12:04;;;;;;;52.45;27.67;;;28.90;99.90;;;;;;5074871;28;20540;-64
2022/10/10 12:14:32;;;;;;;48.08;25.15;;;29.00;99.90;;;;;;5076532;28;20028;-64
2022/10/10 12:16:59;;;;;;;46.67;24.77;;;28.90;99.90;;;;;;5074507;28;20047;-64
2022/10/10 12:19:28;;;;;;;110.93;81.88;;;28.90;99.90;;;;;;5068564;28;20047;-65
2022/10/10 12:21:57;;;;;;;69.00;44.25;;;28.80;99.90;;;;;;5081013;28;20462;-65
2022/10/10 12:24:26;;;;;;;52.80;31.42;;;28.90;99.90;;;;;;5082141;28;20043;-65
2022/10/10 12:26:54;;;;;;;44.42;25.08;;;28.90;99.90;;;;;;5081994;28;20024;-64
2022/10/10 12:29:41;;;;;;;119.68;87.07;;;28.90;99.90;;;;;;5081366;28;20020;-65
2022/10/10 12:32:13;;;;;;;114.10;81.50;;;28.90;99.90;;;;;;5079504;28;20027;-70
2022/10/10 12:34:46;;;;;;;145.48;89.63;;;29.00;99.90;;;;;;5079554;28;20044;-68
2022/10/10 12:37:34;;;;;;;131.50;88.95;;;28.90;99.90;;;;;;5076832;28;20546;-69
2022/10/10 12:40:15;;;;;;;27.98;17.38;;;28.90;99.90;;;;;;5079923;28;20096;-69
2022/10/10 12:42:46;;;;;;;70.93;48.00;;;28.90;99.90;;;;;;5076498;28;20025;-67
2022/10/10 12:45:32;;;;;;;49.72;37.95;;;28.90;99.90;;;;;;5077362;28;20057;-68
2022/10/10 12:48:01;;;;;;;108.35;76.65;;;28.90;99.90;;;;;;5077143;28;20024;-67
2022/10/10 12:50:33;;;;;;;125.72;79.15;;;28.80;99.90;;;;;;5073761;28;20096;-67
2022/10/10 12:53:00;;;;;;;;;;;28.80;99.90;;;;;;5074563;28;20104;-67
2022/10/10 12:55:31;;;;;;;37.50;23.73;;;28.80;99.90;;;;;;5072436;28;19927;-66